Time;durP1;ratioP1;P1;durP2;ratioP2;P2;SDS_P1;SDS_P2;PMS_P1;PMS_P2;Temp;Humidity;BMP_temperature;BMP_pressure;BME280_temperature;BME280_humidity;BME280_pressure;Samples;Min_cycle;Max_cycle;Signal;HPM_P1;HPM_P2
2021/12/17 00:00:57;;;;;;;5.03;3.47;;;;;;;7.31;71.72;100810.66;5366641;26;33462;-92
2021/12/17 00:03:39;;;;;;;5.93;3.30;;;;;;;7.00;72.78;100786.00;5364765;26;34135;-95
2021/12/17 00:06:17;;;;;;;5.40;2.40;;;;;;;7.08;72.46;100810.25;5367688;26;33803;-91
2021/12/17 00:08:49;;;;;;;4.68;2.80;;;;;;;6.69;74.01;100800.84;5364882;26;34265;-94
2021/12/17 00:11:19;;;;;;;6.62;3.65;;;;;;;6.62;73.75;100799.87;5368206;26;33221;-92
2021/12/17 00:13:49;;;;;;;5.55;3.37;;;;;;;6.72;73.55;100823.28;5362088;26;33196;-93
2021/12/17 00:16:21;;;;;;;4.05;2.87;;;;;;;6.68;73.46;100822.34;5361073;26;34629;-96
2021/12/17 00:49:52;;;;;;;4.82;2.92;;;;;;;6.46;69.71;100784.94;5363015;26;33783;-92
2021/12/17 00:52:21;;;;;;;5.50;3.35;;;;;;;6.35;69.69;100789.84;5365279;26;34316;-93
2021/12/17 00:54:51;;;;;;;3.15;2.15;;;;;;;6.36;69.84;100812.22;5362853;26;33635;-95
2021/12/17 00:57:24;;;;;;;2.67;2.25;;;;;;;6.24;69.70;100811.09;5347278;26;35255;-92
2021/12/17 00:59:55;;;;;;;5.07;3.05;;;;;;;6.34;69.58;100792.41;5363775;26;33998;-92
2021/12/17 01:02:26;;;;;;;4.50;2.83;;;;;;;6.24;69.78;100801.62;5343456;26;32667;-93
2021/12/17 01:04:58;;;;;;;3.42;2.45;;;;;;;6.36;69.27;100794.16;5364775;26;33580;-91
2021/12/17 01:07:27;;;;;;;;;;;;;;;6.22;69.39;100776.69;5362544;26;33587;-93
2021/12/17 01:10:00;;;;;;;2.60;2.17;;;;;;;6.03;69.90;100776.25;5364851;26;34124;-94
2021/12/17 01:12:30;;;;;;;4.37;2.67;;;;;;;6.00;69.68;100758.16;5368057;26;34792;-93
2021/12/17 01:15:00;;;;;;;5.18;3.10;;;;;;;5.98;69.80;100754.69;5364105;26;33541;-92
2021/12/17 01:17:31;;;;;;;3.78;2.47;;;;;;;6.14;69.08;100758.47;5362605;26;33649;-92
2021/12/17 01:20:20;;;;;;;6.50;2.65;;;;;;;5.89;69.64;100744.12;5365846;26;33918;-91
2021/12/17 01:22:58;;;;;;;2.65;2.33;;;;;;;5.93;69.75;100744.22;5362123;26;34103;-93
2021/12/17 01:25:49;;;;;;;3.72;2.65;;;;;;;5.89;69.81;100755.28;5365885;26;33578;-91
2021/12/17 01:36:52;;;;;;;2.80;1.92;;;;;;;5.94;69.44;100735.72;5365459;26;34249;-90
2021/12/17 01:42:21;;;;;;;3.83;3.22;;;;;;;5.69;69.71;100728.22;5293017;27;34417;-92
2021/12/17 01:44:50;;;;;;;4.12;2.95;;;;;;;5.71;69.60;100722.28;5293507;27;33680;-92
2021/12/17 01:47:18;;;;;;;3.87;2.70;;;;;;;5.68;68.82;100740.25;5293869;27;34095;-93
2021/12/17 02:00:56;;;;;;;3.33;2.50;;;;;;;6.26;65.91;100743.28;5292719;27;33445;-93
2021/12/17 02:03:25;;;;;;;3.22;2.40;;;;;;;6.10;66.18;100723.16;5292630;27;34433;-92
2021/12/17 02:05:54;;;;;;;4.97;2.92;;;;;;;6.20;65.58;100725.09;5292952;27;34068;-93
2021/12/17 02:08:23;;;;;;;2.62;2.00;;;;;;;6.02;65.94;100716.97;5298446;27;33593;-94
2021/12/17 02:11:37;;;;;;;3.65;2.60;;;;;;;5.83;66.15;100738.84;5275748;27;32731;-93
2021/12/17 02:19:48;;;;;;;4.28;2.15;;;;;;;5.89;65.17;100737.25;5364618;26;33174;-95
2021/12/17 02:31:02;;;;;;;2.53;1.92;;;;;;;5.79;64.78;100696.69;5363817;26;33653;-91
2021/12/17 02:33:31;;;;;;;3.50;2.15;;;;;;;5.68;64.92;100693.91;5363056;26;34161;-94
2021/12/17 02:36:01;;;;;;;3.15;2.25;;;;;;;5.63;64.94;100717.78;5367860;26;33494;-91
2021/12/17 02:38:37;;;;;;;2.05;1.85;;;;;;;5.70;64.50;100717.09;5362356;26;34062;-92
2021/12/17 02:46:44;;;;;;;4.22;2.30;;;;;;;5.54;64.71;100727.03;5362211;26;33928;-93
2021/12/17 02:49:13;;;;;;;2.53;2.28;;;;;;;5.73;64.31;100737.78;5361771;26;34456;-95
2021/12/17 02:51:48;;;;;;;2.22;1.95;;;;;;;5.83;64.07;100742.28;5363090;26;34935;-93
2021/12/17 02:54:18;;;;;;;4.75;2.95;;;;;;;5.76;64.65;100748.13;5361568;26;33834;-93
2021/12/17 02:56:47;;;;;;;3.05;2.22;;;;;;;5.85;64.36;100763.81;5358090;26;33553;-94
2021/12/17 02:59:16;;;;;;;3.35;2.40;;;;;;;5.82;64.49;100753.41;5362612;26;35470;-92
2021/12/17 03:01:46;;;;;;;3.25;1.85;;;;;;;6.06;63.90;100752.25;5364814;26;33647;-91
2021/12/17 03:04:15;;;;;;;3.22;2.55;;;;;;;5.85;64.75;100748.34;5371947;26;33886;-93
2021/12/17 03:06:43;;;;;;;3.80;2.67;;;;;;;6.07;64.33;100759.19;5344078;26;32076;-91
2021/12/17 03:09:13;;;;;;;3.17;2.08;;;;;;;6.21;63.85;100747.47;5345072;26;33287;-93
2021/12/17 03:11:43;;;;;;;2.90;2.62;;;;;;;6.16;64.19;100744.78;5363836;26;34444;-94
2021/12/17 03:14:12;;;;;;;2.42;2.05;;;;;;;5.96;65.17;100746.03;5369239;26;33065;-89
2021/12/17 03:16:58;;;;;;;4.82;3.50;;;;;;;6.07;65.27;100739.44;5370173;26;34485;-91
2021/12/17 03:23:26;;;;;;;3.22;2.28;;;;;;;6.06;65.50;100729.09;5364857;26;34597;-93
2021/12/17 03:25:02;;;;;;;3.72;2.75;;;;;;;5.75;67.97;100724.09;5363954;26;34655;-91
2021/12/17 03:27:32;;;;;;;5.90;3.55;;;;;;;5.69;69.23;100720.50;5367392;26;33918;-91
2021/12/17 03:30:02;;;;;;;4.87;2.92;;;;;;;5.52;70.01;100723.53;5369134;26;33767;-94
2021/12/17 03:32:31;;;;;;;4.65;3.42;;;;;;;5.51;70.22;100726.09;5365372;26;34332;-90
2021/12/17 03:35:01;;;;;;;4.87;3.03;;;;;;;5.36;71.95;100760.03;5342411;26;32878;-94
2021/12/17 03:37:30;;;;;;;7.30;4.18;;;;;;;5.37;72.01;100742.91;5363785;26;33946;-89
2021/12/17 03:40:00;;;;;;;5.45;3.35;;;;;;;5.19;73.11;100751.87;5343987;26;34161;-93
2021/12/17 03:42:32;;;;;;;5.90;4.07;;;;;;;5.34;72.89;100762.59;5369270;26;32839;-95
2021/12/17 03:45:01;;;;;;;5.87;3.42;;;;;;;5.31;73.30;100759.03;5363524;26;33849;-92
2021/12/17 03:47:31;;;;;;;5.70;3.87;;;;;;;5.48;72.64;100747.47;5368138;26;34788;-92
2021/12/17 03:50:00;;;;;;;5.00;3.00;;;;;;;5.63;72.24;100751.25;5364667;26;34223;-92
2021/12/17 03:52:29;;;;;;;4.57;3.37;;;;;;;5.50;72.65;100750.09;5368536;26;33409;-91
2021/12/17 03:54:58;;;;;;;6.20;3.90;;;;;;;5.47;72.70;100745.72;5364678;26;33836;-95
2021/12/17 03:57:28;;;;;;;5.78;3.78;;;;;;;5.81;71.63;100735.37;5345239;26;32262;-93
2021/12/17 03:59:58;;;;;;;5.75;4.18;;;;;;;5.50;72.49;100726.91;5367116;26;33703;-93
2021/12/17 04:02:29;;;;;;;6.10;3.53;;;;;;;5.34;72.99;100736.84;5369686;26;33486;-89
2021/12/17 04:04:58;;;;;;;3.05;2.30;;;;;;;5.51;72.48;100733.81;5348655;26;33682;-94
2021/12/17 04:07:33;;;;;;;6.12;3.17;;;;;;;5.48;72.33;100732.03;5361881;26;32509;-94
2021/12/17 04:10:02;;;;;;;6.28;3.83;;;;;;;5.63;71.73;100731.53;5364348;26;34587;-91
2021/12/17 04:12:42;;;;;;;6.28;3.60;;;;;;;5.40;72.36;100753.28;5362446;26;34081;-91
2021/12/17 04:15:14;;;;;;;7.05;3.35;;;;;;;5.60;71.52;100754.59;5367970;26;33551;-92
2021/12/17 04:17:46;;;;;;;6.55;3.50;;;;;;;5.50;71.85;100752.66;5366009;26;33675;-92
2021/12/17 04:20:15;;;;;;;5.30;3.58;;;;;;;5.25;72.68;100761.47;5344483;26;32194;-92
2021/12/17 04:22:46;;;;;;;4.12;2.97;;;;;;;5.25;72.39;100759.78;5366051;26;33255;-92
2021/12/17 04:25:15;;;;;;;5.40;3.75;;;;;;;5.36;71.87;100765.16;5362477;26;33953;-94
2021/12/17 04:27:44;;;;;;;8.80;4.05;;;;;;;5.34;71.83;100774.59;5367231;26;33949;-93
2021/12/17 04:30:14;;;;;;;6.03;4.05;;;;;;;5.38;71.85;100766.09;5363453;26;34813;-95
2021/12/17 04:32:46;;;;;;;6.80;4.70;;;;;;;5.50;71.00;100784.41;5360432;26;32924;-92
2021/12/17 04:35:14;;;;;;;;;;;;;;;5.46;71.03;100779.13;5363090;26;33900;-94
2021/12/17 04:37:45;;;;;;;5.12;3.40;;;;;;;5.55;70.54;100787.97;5370613;26;36447;-90
2021/12/17 04:40:17;;;;;;;8.75;4.60;;;;;;;5.56;70.37;100765.69;5345964;26;32705;-94
2021/12/17 04:42:57;;;;;;;6.18;3.55;;;;;;;5.31;71.43;100782.19;5364391;26;33294;-90
2021/12/17 04:45:27;;;;;;;3.67;2.87;;;;;;;5.24;71.78;100772.56;5366167;26;34641;-91
2021/12/17 04:59:20;;;;;;;6.97;3.72;;;;;;;5.31;71.70;100761.63;5295204;27;33461;-93
2021/12/17 05:01:51;;;;;;;5.15;3.30;;;;;;;5.49;70.85;100754.38;5293365;27;33854;-92
2021/12/17 05:04:26;;;;;;;4.60;3.50;;;;;;;5.50;70.71;100748.38;5275099;27;32188;-93
2021/12/17 05:06:55;;;;;;;4.97;3.17;;;;;;;5.24;71.57;100758.03;5275617;27;32274;-93
2021/12/17 05:09:32;;;;;;;5.53;3.55;;;;;;;5.33;71.53;100759.97;5298470;27;34324;-95
2021/12/17 05:20:29;;;;;;;5.75;3.03;;;;;;;5.20;71.71;100724.47;5296260;27;34719;-92
2021/12/17 05:23:00;;;;;;;6.78;3.47;;;;;;;5.08;72.26;100717.31;5295641;27;33867;-94
2021/12/17 05:25:30;;;;;;;6.45;3.67;;;;;;;5.17;71.83;100701.22;5351618;26;34459;-89
2021/12/17 05:28:01;;;;;;;5.20;3.20;;;;;;;5.16;71.98;100708.06;5365284;26;34585;-92
2021/12/17 05:30:31;;;;;;;7.68;3.05;;;;;;;5.32;71.11;100712.78;5364317;26;33991;-92
2021/12/17 05:33:02;;;;;;;6.00;2.90;;;;;;;5.25;71.42;100710.88;5363927;26;33320;-89
2021/12/17 05:35:31;;;;;;;4.68;3.50;;;;;;;5.11;71.83;100720.81;5369331;26;33610;-93
2021/12/17 05:38:00;;;;;;;3.60;2.70;;;;;;;5.17;71.66;100737.25;5363534;26;34277;-93
2021/12/17 05:40:29;;;;;;;5.50;3.42;;;;;;;5.22;71.11;100722.78;5362992;26;33595;-93
2021/12/17 05:43:01;;;;;;;2.78;2.20;;;;;;;5.15;71.18;100721.78;5364448;26;34037;-92
2021/12/17 05:45:35;;;;;;;4.82;2.95;;;;;;;5.04;71.38;100721.50;5363304;26;34361;-93
2021/12/17 05:48:08;;;;;;;3.22;2.28;;;;;;;4.91;72.03;100719.44;5369533;26;34430;-91
2021/12/17 05:50:42;;;;;;;3.35;2.42;;;;;;;4.88;71.98;100722.81;5362311;26;34608;-94
2021/12/17 06:16:48;;;;;;;4.07;2.62;;;;;;;4.90;71.78;100730.53;5314429;26;20057;-91
2021/12/17 06:19:21;;;;;;;5.22;2.50;;;;;;;4.91;71.84;100758.03;5342980;26;32611;-91
2021/12/17 06:21:49;;;;;;;4.30;3.10;;;;;;;4.71;72.62;100762.59;5362111;26;33560;-90
2021/12/17 06:24:18;;;;;;;4.90;3.15;;;;;;;4.76;72.50;100755.00;5357471;26;33148;-91
2021/12/17 06:26:47;;;;;;;4.05;2.75;;;;;;;4.75;72.25;100751.56;5348438;26;32900;-89
2021/12/17 06:29:16;;;;;;;3.80;2.72;;;;;;;4.90;71.60;100745.97;5366653;26;34755;-91
2021/12/17 06:31:47;;;;;;;2.55;2.30;;;;;;;4.66;72.54;100747.06;5366286;26;34366;-89
2021/12/17 06:34:16;;;;;;;3.92;3.33;;;;;;;4.83;71.39;100739.81;5365659;26;33346;-90
2021/12/17 06:36:44;;;;;;;3.28;2.62;;;;;;;4.78;71.51;100743.06;5369374;26;33611;-89
2021/12/17 06:39:16;;;;;;;5.10;3.10;;;;;;;4.88;71.31;100769.09;5369959;26;33784;-90
2021/12/17 06:41:45;;;;;;;3.37;2.72;;;;;;;4.82;71.36;100768.91;5365654;26;33861;-89
2021/12/17 06:44:17;;;;;;;4.32;2.40;;;;;;;4.61;72.20;100776.88;5366863;26;33889;-90
2021/12/17 06:46:56;;;;;;;5.28;3.25;;;;;;;4.77;71.53;100782.47;5364679;26;33667;-93
2021/12/17 06:49:31;;;;;;;3.95;3.35;;;;;;;4.68;71.63;100773.66;5348283;26;33414;-90
2021/12/17 06:55:03;;;;;;;4.28;3.03;;;;;;;4.64;71.83;100779.56;5365673;26;33895;-95
2021/12/17 07:00:58;;;;;;;4.43;3.20;;;;;;;4.62;71.76;100776.06;5366301;26;32791;-88
2021/12/17 07:06:37;;;;;;;6.05;2.85;;;;;;;4.56;71.62;100764.75;5368262;26;33745;-90
2021/12/17 07:17:36;;;;;;;5.53;3.53;;;;;;;4.87;70.43;100807.59;5343868;26;34473;-90
2021/12/17 07:23:34;;;;;;;4.90;2.10;;;;;;;4.87;70.54;100803.34;5334154;26;34054;-92
2021/12/17 07:29:54;;;;;;;4.22;2.80;;;;;;;4.84;70.59;100807.53;5344796;26;33921;-92
2021/12/17 07:34:50;;;;;;;4.62;3.47;;;;;;;5.06;70.01;100815.00;5344473;26;34049;-88
2021/12/17 07:40:12;;;;;;;3.40;2.75;;;;;;;4.84;70.58;100830.69;5311915;26;34334;-90
2021/12/17 07:42:43;;;;;;;3.62;2.35;;;;;;;5.02;70.34;100835.44;5324706;26;32378;-92
2021/12/17 07:45:13;;;;;;;5.50;3.55;;;;;;;4.94;70.23;100837.81;5322838;26;34824;-87
2021/12/17 07:47:47;;;;;;;4.10;2.58;;;;;;;4.90;70.29;100838.53;5343220;26;33747;-89
2021/12/17 07:50:18;;;;;;;6.45;3.22;;;;;;;4.97;70.12;100840.47;5343293;26;33991;-90
2021/12/17 07:52:49;;;;;;;5.37;3.03;;;;;;;4.97;70.18;100850.75;5346068;26;33844;-90
2021/12/17 07:55:18;;;;;;;4.30;2.62;;;;;;;5.14;69.45;100848.62;5348704;26;33976;-90
2021/12/17 07:57:47;;;;;;;5.37;3.62;;;;;;;5.17;69.47;100858.13;5346202;26;33241;-94
2021/12/17 08:00:17;;;;;;;4.97;2.67;;;;;;;5.14;69.50;100874.37;5324836;26;33099;-90
2021/12/17 08:02:45;;;;;;;4.25;2.95;;;;;;;5.21;68.96;100865.97;5347778;26;33918;-91
2021/12/17 08:05:19;;;;;;;4.30;3.05;;;;;;;5.48;68.05;100872.72;5348270;26;32498;-89
2021/12/17 08:07:49;;;;;;;4.75;3.17;;;;;;;5.33;68.52;100856.03;5351574;26;34194;-91
2021/12/17 08:10:19;;;;;;;3.03;2.70;;;;;;;5.52;67.74;100859.97;5346824;26;32991;-90
2021/12/17 08:12:47;;;;;;;4.53;3.03;;;;;;;5.60;67.72;100860.16;5348596;26;33855;-88
2021/12/17 08:15:22;;;;;;;4.35;3.28;;;;;;;5.36;68.09;100860.37;5348844;26;35049;-89
2021/12/17 08:18:17;;;;;;;4.05;2.85;;;;;;;5.62;67.36;100875.66;5345373;26;33702;-89
2021/12/17 08:26:25;;;;;;;10.07;3.03;;;;;;;5.86;66.39;100865.97;5348710;26;34172;-90
2021/12/17 08:29:24;;;;;;;3.75;2.55;;;;;;;5.66;67.05;100857.75;5347846;26;33962;-89
2021/12/17 08:31:53;;;;;;;2.40;2.20;;;;;;;5.70;66.87;100859.59;5347172;26;35215;-89
2021/12/17 08:34:23;;;;;;;2.33;1.95;;;;;;;5.58;67.21;100856.66;5345826;26;36074;-88
2021/12/17 08:36:54;;;;;;;;;;;;;;;5.81;66.54;100843.53;5346544;26;34388;-90
2021/12/17 08:39:24;;;;;;;4.97;3.03;;;;;;;5.68;67.11;100856.09;5344336;26;33241;-92
2021/12/17 08:41:55;;;;;;;5.10;2.97;;;;;;;5.65;66.97;100862.84;5352373;26;33983;-88
2021/12/17 08:44:29;;;;;;;3.30;2.42;;;;;;;5.77;67.05;100865.72;5351700;26;33014;-90
2021/12/17 08:47:00;;;;;;;2.85;2.40;;;;;;;5.85;66.36;100856.50;5346845;26;33898;-89
2021/12/17 08:49:30;;;;;;;3.78;2.92;;;;;;;5.92;66.05;100868.72;5348850;26;32976;-91
2021/12/17 08:52:05;;;;;;;6.40;3.12;;;;;;;5.86;66.06;100859.94;5345479;26;33738;-90
2021/12/17 08:54:36;;;;;;;3.72;2.47;;;;;;;5.85;66.15;100865.94;5345007;26;34336;-90
2021/12/17 08:57:06;;;;;;;4.55;2.87;;;;;;;5.80;66.62;100867.50;5350765;26;34054;-94
2021/12/17 08:59:37;;;;;;;3.55;2.80;;;;;;;5.88;66.26;100860.87;5346042;26;34398;-90
2021/12/17 09:02:10;;;;;;;2.50;2.17;;;;;;;6.06;66.08;100857.87;5347742;26;34040;-89
2021/12/17 09:04:39;;;;;;;3.05;2.53;;;;;;;6.37;64.74;100868.06;5344696;26;33709;-91
2021/12/17 09:07:12;;;;;;;4.15;2.60;;;;;;;6.35;64.59;100872.31;5345716;26;34789;-89
2021/12/17 09:09:45;;;;;;;3.42;2.70;;;;;;;6.37;64.50;100857.75;5343856;26;33606;-94
2021/12/17 09:12:17;;;;;;;3.85;2.42;;;;;;;6.47;64.04;100857.97;5349753;26;34700;-89
2021/12/17 09:14:46;;;;;;;2.28;1.98;;;;;;;6.47;63.97;100860.53;5343517;26;34695;-90
2021/12/17 09:17:18;;;;;;;3.53;2.47;;;;;;;6.26;64.71;100854.09;5341376;26;32599;-88
2021/12/17 09:19:49;;;;;;;3.65;2.37;;;;;;;6.49;64.32;100843.41;5344603;26;33762;-89
2021/12/17 09:22:19;;;;;;;3.78;2.25;;;;;;;6.50;64.09;100830.56;5341670;26;34200;-92
2021/12/17 09:24:50;;;;;;;3.58;2.85;;;;;;;6.40;64.07;100829.50;5345363;26;33844;-89
2021/12/17 09:27:22;;;;;;;5.07;2.58;;;;;;;6.04;65.54;100832.09;5345032;26;34152;-93
2021/12/17 09:29:54;;;;;;;2.90;2.15;;;;;;;6.20;64.93;100830.75;5342796;26;32204;-91
2021/12/17 09:32:23;;;;;;;5.37;2.47;;;;;;;6.27;64.89;100822.31;5344040;26;33749;-90
2021/12/17 09:38:20;;;;;;;3.58;2.50;;;;;;;6.38;64.09;100809.69;5335664;26;33672;-89
2021/12/17 09:40:51;;;;;;;3.20;2.60;;;;;;;6.60;63.65;100822.19;5347701;26;33661;-91
2021/12/17 09:43:20;;;;;;;2.90;1.98;;;;;;;6.73;63.18;100822.44;5348843;26;33978;-92
2021/12/17 09:45:49;;;;;;;4.95;2.47;;;;;;;6.57;63.30;100831.53;5345891;26;34325;-87
2021/12/17 09:48:20;;;;;;;4.97;2.75;;;;;;;6.68;63.06;100819.75;5344980;26;34286;-88
2021/12/17 09:50:49;;;;;;;5.55;4.25;;;;;;;6.80;63.24;100820.00;5324889;26;32098;-88
2021/12/17 09:53:18;;;;;;;2.97;2.28;;;;;;;7.09;61.85;100824.88;5345062;26;34055;-88
2021/12/17 09:55:47;;;;;;;2.40;2.03;;;;;;;7.25;61.67;100820.88;5344965;26;34255;-89
2021/12/17 09:58:17;;;;;;;2.45;2.08;;;;;;;7.19;61.54;100826.78;5325493;26;33970;-86
2021/12/17 10:00:46;;;;;;;4.65;2.70;;;;;;;7.25;61.32;100828.62;5347757;26;33165;-88
2021/12/17 10:03:15;;;;;;;4.30;2.60;;;;;;;7.47;60.79;100824.72;5350803;26;34072;-90
2021/12/17 10:05:44;;;;;;;2.37;2.10;;;;;;;7.40;61.11;100835.78;5342136;26;34088;-90
2021/12/17 10:08:14;;;;;;;3.05;1.90;;;;;;;7.29;60.48;100817.50;5347731;26;34419;-90
2021/12/17 10:10:48;;;;;;;4.70;2.25;;;;;;;7.20;60.77;100814.75;5346654;26;33798;-89
2021/12/17 10:13:21;;;;;;;3.67;2.22;;;;;;;7.30;60.95;100816.69;5347709;26;34014;-87
2021/12/17 10:15:52;;;;;;;4.32;2.17;;;;;;;7.48;60.71;100809.22;5343127;26;33849;-87
2021/12/17 10:18:32;;;;;;;4.25;2.33;;;;;;;7.34;59.85;100828.78;5343976;26;33897;-87
2021/12/17 10:21:03;;;;;;;1.85;1.73;;;;;;;7.19;60.75;100811.28;5344029;26;34467;-90
2021/12/17 10:23:32;;;;;;;4.25;2.20;;;;;;;7.17;59.95;100827.59;5347456;26;35264;-87
2021/12/17 10:26:01;;;;;;;2.87;2.05;;;;;;;7.10;60.10;100821.44;5345397;26;34691;-91
2021/12/17 10:28:33;;;;;;;3.53;2.30;;;;;;;7.20;59.60;100813.06;5343261;26;34324;-92
2021/12/17 10:31:03;;;;;;;5.05;2.37;;;;;;;6.96;60.37;100808.31;5327463;26;31931;-88
2021/12/17 10:33:31;;;;;;;2.25;1.60;;;;;;;7.41;59.51;100807.38;5346242;26;34060;-91
2021/12/17 10:36:03;;;;;;;2.50;2.03;;;;;;;7.54;58.17;100792.09;5346201;26;33855;-88
2021/12/17 10:38:35;;;;;;;3.12;1.95;;;;;;;7.51;59.11;100795.50;5349248;26;34940;-88
2021/12/17 10:41:07;;;;;;;2.70;1.90;;;;;;;7.47;59.02;100780.81;5344485;26;34743;-89
2021/12/17 10:43:41;;;;;;;2.10;1.90;;;;;;;7.58;58.84;100779.28;5326157;26;33883;-89
2021/12/17 10:46:22;;;;;;;2.53;1.87;;;;;;;7.72;58.67;100778.66;5344600;26;34493;-92
2021/12/17 10:48:54;;;;;;;;;;;;;;;7.48;59.46;100769.66;5344389;26;34302;-87
2021/12/17 10:51:44;;;;;;;2.20;1.58;;;;;;;7.36;59.26;100774.59;5343161;26;32603;-92
2021/12/17 10:54:16;;;;;;;1.80;1.70;;;;;;;7.46;58.62;100779.06;5345679;26;33918;-89
2021/12/17 10:56:47;;;;;;;2.55;1.60;;;;;;;7.43;58.17;100787.62;5345645;26;33652;-90
2021/12/17 10:59:19;;;;;;;2.05;1.85;;;;;;;7.47;58.69;100816.97;5340381;26;34712;-90
2021/12/17 11:01:52;;;;;;;2.47;1.85;;;;;;;7.50;57.86;100765.38;5341324;26;33725;-88
2021/12/17 11:04:24;;;;;;;3.67;1.92;;;;;;;7.60;58.00;100772.44;5341793;26;33884;-91
2021/12/17 11:06:57;;;;;;;2.87;2.05;;;;;;;7.80;57.73;100775.31;5341986;26;33843;-91
2021/12/17 11:09:34;;;;;;;2.17;1.98;;;;;;;7.63;57.96;100781.94;5348093;26;34589;-90
2021/12/17 11:15:21;;;;;;;3.72;2.37;;;;;;;7.80;58.32;100772.72;5347667;26;20130;-89
2021/12/17 11:18:06;;;;;;;2.47;1.87;;;;;;;7.90;57.97;100768.56;5348401;26;34351;-87
2021/12/17 11:20:41;;;;;;;3.28;1.83;;;;;;;7.62;58.19;100795.69;5366876;26;34537;-88
2021/12/17 11:23:42;;;;;;;3.12;2.50;;;;;;;7.77;57.57;100771.81;5345274;26;33720;-90
2021/12/17 11:26:15;;;;;;;3.05;2.30;;;;;;;7.74;57.37;100770.06;5346531;26;33933;-89
2021/12/17 11:32:01;;;;;;;2.83;2.12;;;;;;;7.68;57.58;100749.28;5366998;26;34301;-90
2021/12/17 11:34:41;;;;;;;3.65;1.70;;;;;;;7.67;57.42;100769.09;5344039;26;33189;-92
2021/12/17 11:37:26;;;;;;;1.85;1.60;;;;;;;7.61;57.31;100773.28;5370171;26;33889;-90
2021/12/17 11:43:20;;;;;;;5.28;2.20;;;;;;;7.69;56.70;100763.97;5364789;26;34638;-88
2021/12/17 11:49:52;;;;;;;3.47;2.43;;;;;;;7.73;56.94;100747.66;5218224;27;33606;-87
2021/12/17 11:53:03;;;;;;;2.17;1.60;;;;;;;8.10;57.00;100750.78;5222079;27;35113;-91
2021/12/17 12:02:11;;;;;;;1.70;1.60;;;;;;;7.67;57.90;100769.09;5256826;27;34662;-88
2021/12/17 12:05:07;;;;;;;2.03;1.80;;;;;;;7.76;57.50;100759.78;5256630;27;35098;-91
2021/12/17 12:08:44;;;;;;;1.62;1.50;;;;;;;7.83;57.61;100771.94;5249686;27;35214;-91
2021/12/17 12:11:26;;;;;;;2.35;1.58;;;;;;;7.59;57.76;100777.59;5253174;27;34394;-89
2021/12/17 12:14:00;;;;;;;4.05;2.37;;;;;;;7.54;58.40;100771.44;5257198;27;34786;-88
2021/12/17 12:16:41;;;;;;;4.00;2.25;;;;;;;7.76;57.28;100773.56;5258331;27;32780;-89
2021/12/17 12:19:26;;;;;;;3.03;2.20;;;;;;;7.51;57.67;100782.59;5255508;27;35262;-88
2021/12/17 12:22:09;;;;;;;2.95;1.95;;;;;;;7.36;58.33;100782.34;5277770;27;33243;-87
2021/12/17 12:24:54;;;;;;;;;;;;;;;;;;;;;
2021/12/17 12:27:28;;;;;;;2.17;1.90;;;;;;;7.44;57.98;100778.16;5323539;26;32841;-88
2021/12/17 12:30:00;;;;;;;2.20;1.60;;;;;;;7.55;57.73;100779.22;5325371;26;34037;-91
2021/12/17 12:32:33;;;;;;;3.33;1.77;;;;;;;7.48;57.54;100769.66;5346287;26;33547;-87
2021/12/17 12:35:14;;;;;;;4.87;1.70;;;;;;;7.39;57.85;100772.97;5347676;26;35888;-90
2021/12/17 12:38:22;;;;;;;3.97;2.35;;;;;;;7.39;57.89;100767.78;5327171;26;33742;-89
2021/12/17 12:40:53;;;;;;;1.77;1.65;;;;;;;7.53;57.54;100765.41;5342948;26;34104;-90
2021/12/17 12:46:53;;;;;;;2.15;1.85;;;;;;;7.70;57.15;100766.56;5344932;26;34042;-92
2021/12/17 12:49:54;;;;;;;2.95;2.03;;;;;;;7.66;57.70;100762.22;5342116;26;34120;-89
2021/12/17 12:52:37;;;;;;;1.80;1.70;;;;;;;7.78;57.29;100766.69;5343987;26;34179;-91
2021/12/17 12:55:08;;;;;;;1.80;1.70;;;;;;;7.82;57.19;100765.00;5344843;26;33588;-90
2021/12/17 12:58:08;;;;;;;2.10;1.42;;;;;;;7.67;57.18;100757.91;5339793;26;34335;-93
2021/12/17 13:00:46;;;;;;;2.33;1.65;;;;;;;7.89;56.36;100766.84;5340849;26;35333;-89
2021/12/17 13:06:54;;;;;;;2.72;2.35;;;;;;;7.52;57.08;100758.53;5328832;26;34663;-91
2021/12/17 13:09:44;;;;;;;2.15;1.70;;;;;;;7.36;57.91;100766.84;5322988;26;33902;-89
2021/12/17 13:15:19;;;;;;;2.87;1.65;;;;;;;7.68;57.67;100768.28;5271430;27;34947;-87
2021/12/17 13:21:59;;;;;;;4.87;2.37;;;;;;;7.42;58.65;100767.84;5257079;27;34014;-89
2021/12/17 13:24:36;;;;;;;2.40;1.60;;;;;;;7.24;59.17;100763.22;5277266;27;33742;-88
2021/12/17 13:27:11;;;;;;;3.92;2.17;;;;;;;7.59;57.93;100759.50;5275032;27;33911;-91
2021/12/17 13:33:02;;;;;;;2.30;1.87;;;;;;;7.51;58.14;100769.69;5254713;27;33901;-88
2021/12/17 13:42:51;;;;;;;4.78;2.10;;;;;;;7.13;59.15;100749.28;5149473;27;34628;-93
2021/12/17 13:45:40;;;;;;;2.10;1.58;;;;;;;7.25;58.79;100764.97;5190680;27;33874;-89
2021/12/17 13:48:29;;;;;;;5.62;2.25;;;;;;;7.18;58.53;100772.56;5171948;27;34273;-90
2021/12/17 13:51:17;;;;;;;2.10;1.80;;;;;;;7.11;58.86;100779.34;5170127;27;33305;-87
2021/12/17 13:53:58;;;;;;;2.75;2.20;;;;;;;7.22;58.25;100769.19;5171275;27;33775;-89
2021/12/17 13:59:33;;;;;;;2.67;2.25;;;;;;;6.93;59.21;100792.75;5172068;27;34042;-89
2021/12/17 14:02:38;;;;;;;5.28;1.80;;;;;;;7.14;58.68;100796.56;5186859;27;34092;-89
2021/12/17 14:05:12;;;;;;;1.85;1.60;;;;;;;6.99;58.64;100794.59;5172031;27;33756;-91
2021/12/17 14:07:42;;;;;;;3.97;1.92;;;;;;;7.06;58.80;100796.44;5193594;27;34240;-92
2021/12/17 14:10:17;;;;;;;2.80;1.80;;;;;;;6.98;58.82;100785.09;5191397;27;34228;-90
2021/12/17 14:13:15;;;;;;;3.87;2.00;;;;;;;6.96;58.85;100790.25;5245934;27;34148;-90
2021/12/17 14:16:03;;;;;;;2.67;2.12;;;;;;;6.95;59.00;100793.63;5278612;27;33289;-91
2021/12/17 14:18:33;;;;;;;4.78;2.85;;;;;;;6.96;59.02;100797.09;5258111;27;33134;-88
2021/12/17 14:21:05;;;;;;;3.60;2.00;;;;;;;7.10;58.44;100782.72;5276645;27;33460;-91
2021/12/17 14:23:39;;;;;;;1.87;1.75;;;;;;;7.05;58.11;100779.19;5276988;27;34415;-89
2021/12/17 14:26:10;;;;;;;6.18;3.62;;;;;;;7.04;58.67;100768.03;5283600;27;33688;-90
2021/12/17 14:28:40;;;;;;;1.70;1.60;;;;;;;7.01;58.80;100773.13;5280770;27;34307;-93
2021/12/17 14:31:12;;;;;;;3.53;2.03;;;;;;;7.05;58.73;100772.34;5279945;27;34861;-91
2021/12/17 14:33:43;;;;;;;3.17;2.53;;;;;;;6.99;58.46;100763.63;5278814;27;34914;-90
2021/12/17 14:36:15;;;;;;;4.12;2.10;;;;;;;6.87;58.95;100763.41;5260292;27;32120;-89
2021/12/17 14:38:48;;;;;;;3.15;1.87;;;;;;;6.94;58.85;100760.09;5279090;27;34217;-89
2021/12/17 14:41:24;;;;;;;4.10;2.53;;;;;;;6.73;59.44;100763.97;5283845;27;34060;-87
2021/12/17 14:43:59;;;;;;;4.60;1.90;;;;;;;6.61;59.72;100754.28;5279493;27;34076;-92
2021/12/17 14:46:40;;;;;;;2.65;2.17;;;;;;;6.69;59.71;100761.31;5276435;27;33381;-90
2021/12/17 14:49:23;;;;;;;4.12;3.72;;;;;;;6.46;60.56;100758.28;5278048;27;33502;-87
2021/12/17 15:00:45;;;;;;;3.87;2.10;;;;;;;6.35;61.08;100760.62;5279791;27;33612;-89
2021/12/17 15:03:24;;;;;;;2.22;1.92;;;;;;;6.37;60.95;100751.22;5279935;27;34764;-87
2021/12/17 15:05:59;;;;;;;1.92;1.73;;;;;;;6.32;61.11;100756.28;5264105;27;32464;-92
2021/12/17 15:08:28;;;;;;;4.00;1.85;;;;;;;6.44;60.50;100757.38;5279290;27;36342;-91
2021/12/17 15:10:58;;;;;;;3.40;2.03;;;;;;;6.08;61.44;100758.31;5281877;27;34902;-89
2021/12/17 15:13:27;;;;;;;3.15;2.25;;;;;;;6.43;60.73;100753.03;5280005;27;34153;-90
2021/12/17 15:15:57;;;;;;;2.33;1.95;;;;;;;6.45;60.49;100767.75;5280661;27;34142;-89
2021/12/17 15:18:26;;;;;;;4.20;2.40;;;;;;;6.45;60.67;100760.00;5281735;27;32502;-89
2021/12/17 15:20:57;;;;;;;2.22;1.80;;;;;;;6.24;61.24;100763.00;5277811;27;33604;-87
2021/12/17 15:23:26;;;;;;;3.22;2.00;;;;;;;6.22;61.31;100758.63;5280491;27;33234;-88
2021/12/17 15:25:55;;;;;;;2.67;2.12;;;;;;;6.26;61.10;100757.84;5281362;27;34178;-92
2021/12/17 15:28:26;;;;;;;4.28;2.28;;;;;;;6.20;61.29;100759.47;5279252;27;33695;-90
2021/12/17 15:30:59;;;;;;;2.12;1.92;;;;;;;6.07;61.63;100754.88;5280048;27;33717;-92
2021/12/17 15:33:28;;;;;;;2.33;2.08;;;;;;;6.20;61.21;100761.16;5284961;27;34503;-89
2021/12/17 15:35:57;;;;;;;2.92;2.15;;;;;;;6.18;61.31;100752.53;5277729;27;34569;-90
2021/12/17 15:38:25;;;;;;;2.80;1.92;;;;;;;6.07;61.58;100766.91;5276784;27;33721;-91
2021/12/17 15:40:55;;;;;;;3.40;2.25;;;;;;;6.04;61.56;100761.66;5275125;27;34321;-92
2021/12/17 15:43:24;;;;;;;3.22;2.45;;;;;;;5.89;62.09;100760.44;5255192;27;32812;-93